• Join FlightAware (Why Join?)
  • Login
  • US Flag 
08:18AM EDT


 

Airport Tracker/Info


-or-


 

Live Flight TrackerFlight Track Log ✈ N81737 ✈ 05-May-2012 ✈ KXLL - KCRE

Flight Track Log - Related Links

Times and Time Zones

All times are in EDT time to prevent confusion due to time zone crossing. See the N81737 flight status page for this flight to view local times or setup timezone preferences in your user account.

Time Position Orientation Groundspeed Altitude Reporting Facility
EDT Latitude Longitude Course Direction KTS MPH feet Rate Location/Type
11:12AM 40.5972 -75.4222 197° South 91 105 1,600  Level FAA TRACON SMA TRACON (SMA)
11:17AM 40.5061 -75.4583 236° Southwest 109 125 3,600 420 Climbing FAA TRACON SMA TRACON (SMA)
11:17AM 40.4953 -75.4792 218° Southwest 110 127 3,900 480 Climbing FAA TRACON SMA TRACON (SMA)
11:18AM 40.4753 -75.4997 219° Southwest 102 117 4,400 600 Climbing FAA TRACON SMA TRACON (SMA)
11:19AM 40.4597 -75.5164 223° Southwest 103 119 4,800 480 Climbing FAA TRACON SMA TRACON (SMA)
11:20AM 40.4456 -75.5336 223° Southwest 107 123 5,100 420 Climbing FAA TRACON SMA TRACON (SMA)
11:20AM 40.4325 -75.5494 227° Southwest 105 121 5,400 420 Climbing FAA TRACON SMA TRACON (SMA)
11:21AM 40.4172 -75.5708 224° Southwest 106 122 5,700 420 Climbing FAA TRACON SMA TRACON (SMA)
11:22AM 40.4044 -75.5869 224° Southwest 105 121 6,000 120 Climbing FAA TRACON SMA TRACON (SMA)
11:22AM 40.3883 -75.6075 185° South 118 136 5,900 60 Descending FAA TRACON SMA TRACON (SMA)
11:23AM 40.3639 -75.6103 164° South 148 170 6,100 60 Climbing FAA TRACON SMA TRACON (SMA)
11:24AM 40.3369 -75.6003 164° South 148 170 6,000 -120 Descending FAA TRACON SMA TRACON (SMA)
11:24AM 40.3125 -75.5908 167° South 149 171 6,000  Level FAA TRACON SMA TRACON (SMA)
11:25AM 40.2836 -75.5822 165° South 150 173 6,000  Level FAA TRACON SMA TRACON (SMA)
11:26AM 40.2586 -75.5733 165° South 151 174 6,000  Level FAA TRACON SMA TRACON (SMA)
11:26AM 40.2300 -75.5636 190° South 153 176 6,000  Level FAA TRACON SMA TRACON (SMA)
11:27AM 40.2022 -75.5697 191° South 151 174 6,000 60 Level FAA TRACON SMA TRACON (SMA)
11:28AM 40.1736 -75.5772 197° South 150 173 6,100  Climbing FAA TRACON SMA TRACON (SMA)
11:28AM 40.1486 -75.5872 196° South 150 173 6,000 -120 Descending FAA TRACON SMA TRACON (SMA)
11:29AM 40.1206 -75.5975 196° South 150 173 6,000  Level FAA TRACON SMA TRACON (SMA)
11:30AM 40.0969 -75.6061 196° South 151 174 6,000  Level FAA TRACON SMA TRACON (SMA)
11:30AM 40.0672 -75.6169 196° South 151 174 6,000  Level FAA TRACON SMA TRACON (SMA)
11:31AM 40.0392 -75.6272 196° South 152 175 6,000  Level FAA TRACON SMA TRACON (SMA)
11:32AM 40.0139 -75.6367 195° South 153 176 6,000 60 Level FAA TRACON SMA TRACON (SMA)
11:32AM 39.9853 -75.6469 195° South 155 178 6,100  Climbing FAA TRACON SMA TRACON (SMA)
11:33AM 39.9581 -75.6567 196° South 154 177 6,000 -120 Descending FAA TRACON SMA TRACON (SMA)
11:34AM 39.9311 -75.6667 180° South 155 178 6,000 60 Level FAA TRACON SMA TRACON (SMA)
11:34AM 39.9022 -75.6667 168° South 166 191 6,100  Climbing FAA TRACON SMA TRACON (SMA)
11:35AM 39.8731 -75.6586 170° South 155 178 6,000 -120 Descending FAA TRACON SMA TRACON (SMA)
11:36AM 39.8431 -75.6517 169° South 158 182 6,000  Level FAA TRACON SMA TRACON (SMA)
11:36AM 39.8167 -75.6447 168° South 156 180 6,000  Level FAA TRACON SMA TRACON (SMA)
11:37AM 39.7869 -75.6364 168° South 159 183 6,000  Level FAA TRACON SMA TRACON (SMA)
11:38AM 39.7567 -75.6283 167° South 159 183 6,000  Level FAA TRACON SMA TRACON (SMA)
11:38AM 39.7294 -75.6203 169° South 160 184 6,000  Level FAA TRACON SMA TRACON (SMA)
11:39AM 39.7000 -75.6131 169° South 158 182 6,000  Level FAA TRACON SMA TRACON (SMA)
11:40AM 39.6714 -75.6056 171° South 154 177 6,000 -120 Level FAA TRACON SMA TRACON (SMA)
11:40AM 39.6442 -75.5997 171° South 157 181 5,900  Descending FAA TRACON SMA TRACON (SMA)
11:41AM 39.6150 -75.5939 171° South 154 177 6,000 60 Climbing FAA TRACON SMA TRACON (SMA)
11:42AM 39.5853 -75.5875 172° South 156 180 6,000  Level FAA TRACON SMA TRACON (SMA)
11:42AM 39.5589 -75.5828 172° South 155 178 6,000  Level FAA TRACON SMA TRACON (SMA)
11:43AM 39.5294 -75.5772 169° South 154 177 6,000  Level FAA TRACON SMA TRACON (SMA)
11:44AM 39.4997 -75.5697 176° South 155 178 6,000  Level FAA TRACON SMA TRACON (SMA)
11:44AM 39.4753 -75.5678 168° South 153 176 6,000 60 Level FAA TRACON SMA TRACON (SMA)
11:45AM 39.4447 -75.5594 171° South 153 176 6,100  Climbing FAA TRACON SMA TRACON (SMA)
11:46AM 39.4161 -75.5536 171° South 151 174 6,000  Descending FAA TRACON SMA TRACON (SMA)
11:46AM 39.3903 -75.5483 172° South 151 174 6,100 60 Climbing FAA TRACON SMA TRACON (SMA)
11:47AM 39.3619 -75.5431 170° South 149 171 6,100  Level FAA TRACON SMA TRACON (SMA)
11:48AM 39.3336 -75.5367 170° South 149 171 6,100  Level FAA TRACON SMA TRACON (SMA)
11:48AM 39.3081 -75.5311 173° South 151 174 6,100  Level FAA TRACON SMA TRACON (SMA)
11:49AM 39.2794 -75.5264 170° South 150 173 6,100  Level FAA TRACON SMA TRACON (SMA)
11:50AM 39.2506 -75.5200 171° South 150 173 6,100  Level FAA TRACON SMA TRACON (SMA)
11:50AM 39.2219 -75.5144 176° South 151 174 6,100  Level FAA TRACON SMA TRACON (SMA)
11:51AM 39.2186 -75.5142 181° South 151 174 6,100 -60 Level FAA TRACON SMA TRACON (SMA)
11:59AM 38.8653 -75.5197 179° South 149 171 5,800 -60 Descending Washington Center
12:04PM 38.6569 -75.5144 175° South 145 167 5,900  Climbing Washington Center
12:05PM 38.6150 -75.5094 142° Southeast 148 170 5,900  Level Washington Center
12:06PM 38.5775 -75.4722 141° Southeast 149 171 5,900  Level Washington Center
12:07PM 38.5419 -75.4350 143° Southeast 151 174 5,900  Level Washington Center
12:08PM 38.5086 -75.4033 143° Southeast 149 171 5,900  Level Washington Center
12:09PM 38.4814 -75.3769 143° Southeast 148 170 5,900  Level Washington Center
12:10PM 38.4481 -75.3450 144° Southeast 147 169 5,900  Level Washington Center
12:11PM 38.4147 -75.3136 139° Southeast 145 167 5,900  Level Washington Center
12:12PM 38.3833 -75.2792 191° South 145 167 5,900  Level Washington Center
12:13PM 38.3500 -75.2872 207° Southwest 138 159 5,900  Level Washington Center
12:14PM 38.3167 -75.3086 207° Southwest 138 159 5,900  Level Washington Center
12:15PM 38.2792 -75.3325 213° Southwest 145 167 5,900  Level Washington Center
12:16PM 38.2500 -75.3564 211° Southwest 144 166 5,900  Level Washington Center
12:17PM 38.2147 -75.3831 209° Southwest 138 159 5,900  Level Washington Center
12:18PM 38.1814 -75.4069 213° Southwest 131 151 5,900  Level Washington Center
12:19PM 38.1500 -75.4333 244° Southwest 143 165 5,900  Level Washington Center
12:20PM 38.1314 -75.4808 245° Southwest 142 163 5,900  Level Washington Center
12:21PM 38.1147 -75.5258 237° Southwest 144 166 5,900  Level Washington Center
12:22PM 38.0917 -75.5706 227° Southwest 144 166 5,900  Level Washington Center
12:23PM 38.0647 -75.6075 227° Southwest 146 168 5,900  Level Washington Center
12:24PM 38.0356 -75.6472 231° Southwest 145 167 5,900  Level Washington Center
12:25PM 38.0106 -75.6867 234° Southwest 147 169 5,900  Level Washington Center
12:26PM 37.9853 -75.7314 202° Southwest 147 169 5,900  Level Washington Center
12:27PM 37.9436 -75.7525 200° South 151 174 5,900  Level Washington Center
12:28PM 37.9103 -75.7681 199° South 149 171 6,000  Climbing Washington Center
12:29PM 37.8747 -75.7839 195° South 147 169 6,000  Level Washington Center
12:30PM 37.8372 -75.7969 208° Southwest 148 170 6,000  Level Washington Center
12:31PM 37.8058 -75.8178 198° South 147 169 6,000  Level Washington Center
12:32PM 37.7536 -75.8386 201° Southwest 149 171 6,000  Level Washington Center
12:33PM 37.7161 -75.8569 197° South 147 169 6,000  Level Washington Center
12:34PM 37.6764 -75.8725 196° South 148 170 6,000  Level Washington Center
12:35PM 37.6347 -75.8881 199° South 152 175 6,000  Level Washington Center
12:36PM 37.5992 -75.9036 201° Southwest 154 177 6,000  Level Washington Center
12:37PM 37.5553 -75.9244 200° South 151 174 6,000  Level Washington Center
12:38PM 37.5156 -75.9428 198° South 151 174 6,000  Level Washington Center
12:39PM 37.4719 -75.9608 199° South 151 174 6,000  Level Washington Center
12:41PM 37.4300 -75.9789 199° South 151 174 6,000  Level Washington Center
12:41PM 37.3944 -75.9944 196° South 151 174 6,000  Level Washington Center
12:42PM 37.3528 -76.0097 197° South 152 175 6,000  Level Washington Center
12:44PM 37.3131 -76.0253 199° South 151 174 6,000  Level Washington Center
12:45PM 37.2714 -76.0433 201° Southwest 151 174 6,000  Level Washington Center
12:46PM 37.2336 -76.0614 200° South 151 174 6,000  Level Washington Center
12:47PM 37.1939 -76.0794 196° South 151 174 6,000  Level Washington Center
12:48PM 37.1500 -76.0947 201° Southwest 151 174 6,000  Level Washington Center
12:49PM 37.1083 -76.1153 197° South 150 173 6,000  Level Washington Center
12:50PM 37.0686 -76.1308 199° South 149 171 6,000  Level Washington Center
12:51PM 37.0206 -76.1511 194° South 151 174 6,000  Level Washington Center
12:52PM 36.9786 -76.1639 200° South 150 173 6,000  Level Washington Center
12:53PM 36.9389 -76.1817 201° Southwest 149 171 6,000  Level Washington Center
12:54PM 36.9014 -76.1997 222° Southwest 148 170 6,000  Level Washington Center
12:55PM 36.8761 -76.2281 224° Southwest 139 160 6,000  Level Washington Center
12:56PM 36.8467 -76.2642 225° Southwest 144 166 6,000  Level Washington Center
12:57PM 36.8153 -76.3028 225° Southwest 144 166 6,000  Level Washington Center
12:58PM 36.7881 -76.3364 227° Southwest 141 162 6,000  Level Washington Center
12:59PM 36.7628 -76.3697 226° Southwest 141 162 6,000  Level Washington Center
01:00PM 36.7353 -76.4058 227° Southwest 140 161 6,000  Level Washington Center
01:01PM 36.7100 -76.4392 226° Southwest 142 163 6,000  Level Washington Center
01:02PM 36.6806 -76.4778 224° Southwest 143 165 6,000  Level Washington Center
01:03PM 36.6553 -76.5083 226° Southwest 142 163 6,000  Level Washington Center
01:04PM 36.6258 -76.5469 224° Southwest 139 160 6,100  Climbing Washington Center
01:05PM 36.5964 -76.5828 224° Southwest 138 159 6,000 -60 Descending Washington Center
01:06PM 36.5731 -76.6108 234° Southwest 137 158 6,000  Level Washington Center
01:07PM 36.5519 -76.6469 226° Southwest 138 159 6,000  Level Washington Center
01:08PM 36.5244 -76.6828 222° Southwest 138 159 6,000  Level Washington Center
01:09PM 36.4972 -76.7133 226° Southwest 139 160 6,000  Level Washington Center
01:10PM 36.4675 -76.7517 226° Southwest 143 165 6,000  Level Washington Center
01:11PM 36.4422 -76.7847 230° Southwest 143 165 6,000  Level Washington Center
01:12PM 36.4167 -76.8231 222° Southwest 143 165 6,000  Level Washington Center
01:13PM 36.3850 -76.8589 218° Southwest 143 165 6,100  Climbing Washington Center
01:14PM 36.3536 -76.8892 215° Southwest 143 165 6,000 -60 Descending Washington Center
01:15PM 36.3219 -76.9169 207° Southwest 143 165 6,000  Level Washington Center
01:16PM 36.2861 -76.9397 210° Southwest 149 171 6,100  Climbing Washington Center
01:17PM 36.2483 -76.9672 211° Southwest 149 171 6,000 -60 Descending Washington Center
01:18PM 36.2147 -76.9925 212° Southwest 154 177 6,000  Level Washington Center
01:19PM 36.1789 -77.0203 211° Southwest 154 177 6,000 -60 Level Washington Center
01:20PM 36.1453 -77.0453 212° Southwest 149 171 5,900 -60 Descending Washington Center
01:21PM 36.1094 -77.0728 206° Southwest 149 171 5,900  Level Washington Center
01:22PM 36.0714 -77.0953 218° Southwest 149 171 5,900  Level Washington Center
01:23PM 36.0378 -77.1281 208° Southwest 149 171 5,900  Level Washington Center
01:24PM 35.9956 -77.1556 216° Southwest 149 171 5,900  Level Washington Center
01:25PM 35.9681 -77.1806 211° Southwest 149 171 6,000  Climbing Washington Center
01:26PM 35.9281 -77.2106 208° Southwest 154 177 5,900  Descending Washington Center
01:27PM 35.8903 -77.2356 210° Southwest 154 177 6,000  Climbing Washington Center
01:28PM 35.8522 -77.2628 214° Southwest 159 183 6,000  Level Washington Center
01:29PM 35.8186 -77.2903 210° Southwest 159 183 6,000  Level Washington Center
01:30PM 35.7828 -77.3153 209° Southwest 159 183 6,000  Level Washington Center
01:31PM 35.7469 -77.3400 213° Southwest 152 175 6,000  Level Washington Center
01:32PM 35.7089 -77.3700 211° Southwest 152 175 6,000  Level Washington Center
01:33PM 35.6750 -77.3947 208° Southwest 152 175 6,000 -60 Level Washington Center
01:34PM 35.6372 -77.4194 215° Southwest 149 171 5,900 -60 Descending Washington Center
01:35PM 35.6056 -77.4467 208° Southwest 150 173 5,900  Level Washington Center
01:36PM 35.5675 -77.4714 210° Southwest 148 170 5,900  Level Washington Center
01:37PM 35.5358 -77.4936 212° Southwest 146 168 5,900  Level Washington Center
01:38PM 35.5000 -77.5208 213° Southwest 144 166 5,900  Level Washington Center
01:39PM 35.4661 -77.5481 211° Southwest 147 169 6,000  Climbing Washington Center
01:40PM 35.4325 -77.5728 211° Southwest 144 166 6,000  Level Washington Center
01:41PM 35.3986 -77.5975 209° Southwest 144 166 6,000 -60 Level Washington Center
01:42PM 35.3628 -77.6219 212° Southwest 143 165 5,900 -60 Descending Washington Center
01:43PM 35.3308 -77.6467 208° Southwest 141 162 5,900 60 Level Washington Center
01:44PM 35.2972 -77.6686 211° Southwest 135 155 6,100  Climbing Washington Center
01:45PM 35.2633 -77.6933 212° Southwest 141 162 6,000 -60 Descending Washington Center
01:46PM 35.2275 -77.7203 209° Southwest 142 163 6,000  Level Washington Center
01:47PM 35.1872 -77.7472 208° Southwest 150 173 6,000  Level Washington Center
01:48PM 35.1536 -77.7692 208° Southwest 143 165 6,000  Level Washington Center
01:55PM 34.9086 -77.9263 211° Southwest  Level FlightAware Approximate
01:56PM 34.8748 -77.9507 211° Southwest  Level FlightAware Approximate
01:57PM 34.8410 -77.9750 211° Southwest  Level FlightAware Approximate
01:58PM 34.8072 -77.9993 211° Southwest  Level FlightAware Approximate
01:59PM 34.7734 -78.0236 211° Southwest  Level FlightAware Approximate
02:00PM 34.7395 -78.0479 211° Southwest  Level FlightAware Approximate
02:01PM 34.7057 -78.0722 211° Southwest  Level FlightAware Approximate
02:02PM 34.6719 -78.0964 210° Southwest  Level FlightAware Approximate
02:03PM 34.6380 -78.1207 210° Southwest  Level FlightAware Approximate
02:04PM 34.6042 -78.1449 210° Southwest  Level FlightAware Approximate
02:05PM 34.5703 -78.1691 210° Southwest  Level FlightAware Approximate
02:06PM 34.5365 -78.1932 210° Southwest  Level FlightAware Approximate
02:07PM 34.5026 -78.2174 210° Southwest  Level FlightAware Approximate
02:08PM 34.4687 -78.2415 210° Southwest  Level FlightAware Approximate
02:09PM 34.4349 -78.2656 210° Southwest  Level FlightAware Approximate
02:10PM 34.4010 -78.2897 210° Southwest  Level FlightAware Approximate
02:11PM 34.3671 -78.3138 210° Southwest  Level FlightAware Approximate
02:12PM 34.3332 -78.3378 210° Southwest  Level FlightAware Approximate
02:13PM 34.2993 -78.3618 210° Southwest  Level FlightAware Approximate
02:14PM 34.2654 -78.3859 210° Southwest  Level FlightAware Approximate
02:15PM 34.2315 -78.4099 222° Southwest  Level FlightAware Approximate
02:16PM 34.2033 -78.4410 209° Southwest  Level FlightAware Approximate
02:17PM 34.1690 -78.4641 209° Southwest  Level FlightAware Approximate
02:18PM 34.1346 -78.4872 199° South  Level FlightAware Approximate
02:19PM 34.0976 -78.5023 211° Southwest  Level FlightAware Approximate
02:20PM 34.0638 -78.5265 224° Southwest  Level FlightAware Approximate
02:21PM 34.0364 -78.5587 208° Southwest  Level FlightAware Approximate
02:22PM 34.0017 -78.5808 208° Southwest  Level FlightAware Approximate
02:23PM 33.9669 -78.6029 208° Southwest  Level FlightAware Approximate
02:24PM 33.9322 -78.6250 208° Southwest  Level FlightAware Approximate
02:25PM 33.8975 -78.6471 208° Southwest  Level FlightAware Approximate
02:26PM 33.8629 -78.6695 221° Southwest  Level FlightAware Approximate
02:27PM 33.8335 -78.7008 221° Southwest  Level Estimated
02:28PM 33.8041 -78.7321 41° Northeast  Level Estimated
02:29PM 33.8335 -78.7008 201° Southwest  Level Estimated
02:30PM 33.8000 -78.7167 333° Northwest  Level FlightAware Approximate
02:31PM 33.8349 -78.7383 153° Southeast  Level Estimated
02:32PM 33.8000 -78.7167 333° Northwest  Level FlightAware Approximate
02:33PM 33.8349 -78.7383 153° Southeast  Level Estimated
02:34PM 33.8000 -78.7167 153° Southeast  Level FlightAware Approximate